sensor_id;sensor_type;location;lat;lon;timestamp;pressure;altitude;pressure_sealevel;temperature;humidity
3254;BME280;1639;42.804;23.342;2023-02-10T00:01:15;76700.91;;;-148.52;65.09
3254;BME280;1639;42.804;23.342;2023-02-10T00:03:41;76688.50;;;-148.52;64.42
3254;BME280;1639;42.804;23.342;2023-02-10T00:06:08;76703.00;;;-148.52;64.08
3254;BME280;1639;42.804;23.342;2023-02-10T00:08:34;76723.69;;;-148.52;64.17
3254;BME280;1639;42.804;23.342;2023-02-10T00:11:03;76734.03;;;-148.52;64.81
3254;BME280;1639;42.804;23.342;2023-02-10T00:13:28;76760.94;;;-148.52;65.67
3254;BME280;1639;42.804;23.342;2023-02-10T00:15:57;76754.75;;;-148.52;66.11
3254;BME280;1639;42.804;23.342;2023-02-10T00:18:22;76779.59;;;-148.52;66.45
3254;BME280;1639;42.804;23.342;2023-02-10T00:20:48;76779.59;;;-148.52;66.65
3254;BME280;1639;42.804;23.342;2023-02-10T00:23:13;76773.38;;;-148.52;66.76
3254;BME280;1639;42.804;23.342;2023-02-10T00:25:38;76787.88;;;-148.52;67.15
3254;BME280;1639;42.804;23.342;2023-02-10T00:28:04;76785.78;;;-148.52;67.38
3254;BME280;1639;42.804;23.342;2023-02-10T00:30:31;76779.59;;;-148.52;67.38
3254;BME280;1639;42.804;23.342;2023-02-10T00:32:56;76798.22;;;-148.52;67.66
3254;BME280;1639;42.804;23.342;2023-02-10T00:35:22;76792.00;;;-148.52;67.86
3254;BME280;1639;42.804;23.342;2023-02-10T00:37:48;76792.00;;;-148.52;67.78
3254;BME280;1639;42.804;23.342;2023-02-10T00:40:13;76804.44;;;-148.52;67.42
3254;BME280;1639;42.804;23.342;2023-02-10T00:42:39;76796.16;;;-148.52;67.29
3254;BME280;1639;42.804;23.342;2023-02-10T00:45:04;76796.16;;;-148.52;67.23
3254;BME280;1639;42.804;23.342;2023-02-10T00:47:30;76789.94;;;-148.52;67.29
3254;BME280;1639;42.804;23.342;2023-02-10T00:49:55;76796.16;;;-148.52;67.38
3254;BME280;1639;42.804;23.342;2023-02-10T00:52:22;76792.00;;;-148.52;67.02
3254;BME280;1639;42.804;23.342;2023-02-10T00:54:47;76800.28;;;-148.52;67.13
3254;BME280;1639;42.804;23.342;2023-02-10T00:57:13;76804.44;;;-148.52;67.77
3254;BME280;1639;42.804;23.342;2023-02-10T00:59:39;76808.56;;;-148.52;67.93
3254;BME280;1639;42.804;23.342;2023-02-10T01:02:04;76808.56;;;-148.52;67.35
3254;BME280;1639;42.804;23.342;2023-02-10T01:04:30;76808.56;;;-148.52;67.58
3254;BME280;1639;42.804;23.342;2023-02-10T01:06:55;76802.34;;;-148.52;67.47
3254;BME280;1639;42.804;23.342;2023-02-10T01:09:21;76821.00;;;-148.52;67.46
3254;BME280;1639;42.804;23.342;2023-02-10T01:11:46;76800.28;;;-148.52;67.27
3254;BME280;1639;42.804;23.342;2023-02-10T01:14:11;76800.28;;;-148.52;67.66
3254;BME280;1639;42.804;23.342;2023-02-10T01:16:37;76789.94;;;-148.52;67.13
3254;BME280;1639;42.804;23.342;2023-02-10T01:19:03;76779.59;;;-148.52;66.25
3254;BME280;1639;42.804;23.342;2023-02-10T01:21:29;76792.00;;;-148.52;66.46
3254;BME280;1639;42.804;23.342;2023-02-10T01:23:55;76783.72;;;-148.52;66.17
3254;BME280;1639;42.804;23.342;2023-02-10T01:26:21;76787.88;;;-148.52;65.96
3254;BME280;1639;42.804;23.342;2023-02-10T01:28:47;76779.59;;;-148.52;65.84
3254;BME280;1639;42.804;23.342;2023-02-10T01:31:15;76787.88;;;-148.52;66.06
3254;BME280;1639;42.804;23.342;2023-02-10T01:33:40;76785.78;;;-148.52;66.12
3254;BME280;1639;42.804;23.342;2023-02-10T01:36:14;76773.38;;;-148.52;65.71
3254;BME280;1639;42.804;23.342;2023-02-10T01:38:40;76746.47;;;-148.52;65.54
3254;BME280;1639;42.804;23.342;2023-02-10T01:41:06;76734.03;;;-148.52;64.71
3254;BME280;1639;42.804;23.342;2023-02-10T01:43:31;76752.66;;;-148.52;64.66
3254;BME280;1639;42.804;23.342;2023-02-10T01:45:57;76738.19;;;-148.52;64.72
3254;BME280;1639;42.804;23.342;2023-02-10T01:48:24;76746.47;;;-148.52;64.81
3254;BME280;1639;42.804;23.342;2023-02-10T01:50:52;76758.88;;;-148.52;64.62
3254;BME280;1639;42.804;23.342;2023-02-10T01:53:18;76746.47;;;-148.52;64.22
3254;BME280;1639;42.804;23.342;2023-02-10T01:55:46;76758.88;;;-148.52;64.33
3254;BME280;1639;42.804;23.342;2023-02-10T01:58:15;76740.25;;;-148.52;64.60
3254;BME280;1639;42.804;23.342;2023-02-10T02:00:43;76736.09;;;-148.52;64.20
3254;BME280;1639;42.804;23.342;2023-02-10T02:03:09;76717.47;;;-148.52;63.95
3254;BME280;1639;42.804;23.342;2023-02-10T02:05:37;76711.28;;;-148.52;63.51
3254;BME280;1639;42.804;23.342;2023-02-10T02:08:09;76721.63;;;-148.52;63.53
3254;BME280;1639;42.804;23.342;2023-02-10T02:10:45;76711.28;;;-148.52;63.20
3254;BME280;1639;42.804;23.342;2023-02-10T02:19:23;76723.69;;;-148.52;63.26
3254;BME280;1639;42.804;23.342;2023-02-10T02:32:21;76717.47;;;-148.52;63.57
3254;BME280;1639;42.804;23.342;2023-02-10T02:37:26;76715.41;;;-148.52;62.69
3254;BME280;1639;42.804;23.342;2023-02-10T02:39:54;76711.28;;;-148.52;62.82
3254;BME280;1639;42.804;23.342;2023-02-10T02:42:29;76748.53;;;-148.52;62.93
3254;BME280;1639;42.804;23.342;2023-02-10T02:45:07;76756.81;;;-148.52;63.15
3254;BME280;1639;42.804;23.342;2023-02-10T02:58:54;76845.84;;;-148.52;67.10
3254;BME280;1639;42.804;23.342;2023-02-10T03:01:44;76843.75;;;-148.52;67.07
3254;BME280;1639;42.804;23.342;2023-02-10T03:04:15;76852.03;;;-148.52;67.65
3254;BME280;1639;42.804;23.342;2023-02-10T03:06:41;76843.75;;;-148.52;67.46
3254;BME280;1639;42.804;23.342;2023-02-10T03:09:07;76839.63;;;-148.52;67.71
3254;BME280;1639;42.804;23.342;2023-02-10T03:11:32;76841.69;;;-148.52;66.87
3254;BME280;1639;42.804;23.342;2023-02-10T03:13:57;76860.31;;;-148.52;66.78
3254;BME280;1639;42.804;23.342;2023-02-10T03:16:23;76885.16;;;-148.52;67.59
3254;BME280;1639;42.804;23.342;2023-02-10T03:18:48;76870.66;;;-148.52;67.65
3254;BME280;1639;42.804;23.342;2023-02-10T03:21:14;76878.97;;;-148.52;67.29
3254;BME280;1639;42.804;23.342;2023-02-10T03:23:39;76899.66;;;-148.52;68.06
3254;BME280;1639;42.804;23.342;2023-02-10T03:26:04;76899.66;;;-148.52;68.17
3254;BME280;1639;42.804;23.342;2023-02-10T03:28:30;76907.94;;;-148.52;68.48
3254;BME280;1639;42.804;23.342;2023-02-10T03:30:55;76881.03;;;-148.52;68.05
3254;BME280;1639;42.804;23.342;2023-02-10T03:33:21;76883.09;;;-148.52;67.89
3254;BME280;1639;42.804;23.342;2023-02-10T03:35:47;76878.97;;;-148.52;68.01
3254;BME280;1639;42.804;23.342;2023-02-10T03:38:13;76881.03;;;-148.52;68.10
3254;BME280;1639;42.804;23.342;2023-02-10T03:40:39;76895.50;;;-148.52;68.48
3254;BME280;1639;42.804;23.342;2023-02-10T03:43:05;76907.94;;;-148.52;68.41
3254;BME280;1639;42.804;23.342;2023-02-10T03:45:31;76893.44;;;-148.52;68.37
3254;BME280;1639;42.804;23.342;2023-02-10T03:47:56;76881.03;;;-148.52;68.14
3254;BME280;1639;42.804;23.342;2023-02-10T03:50:22;76883.09;;;-148.52;67.94
3254;BME280;1639;42.804;23.342;2023-02-10T03:52:47;76870.66;;;-148.52;67.69
3254;BME280;1639;42.804;23.342;2023-02-10T03:55:13;76856.19;;;-148.52;67.46
3254;BME280;1639;42.804;23.342;2023-02-10T03:57:43;76854.13;;;-148.52;66.63
3254;BME280;1639;42.804;23.342;2023-02-10T04:00:09;76860.31;;;-148.52;66.75
3254;BME280;1639;42.804;23.342;2023-02-10T04:02:35;76854.13;;;-148.52;66.55
3254;BME280;1639;42.804;23.342;2023-02-10T04:05:00;76866.53;;;-148.52;66.21
3254;BME280;1639;42.804;23.342;2023-02-10T04:07:26;76883.09;;;-148.52;66.50
3254;BME280;1639;42.804;23.342;2023-02-10T04:09:51;76883.09;;;-148.52;66.67
3254;BME280;1639;42.804;23.342;2023-02-10T04:12:16;76864.47;;;-148.52;66.91
3254;BME280;1639;42.804;23.342;2023-02-10T04:14:42;76854.13;;;-148.52;66.75
3254;BME280;1639;42.804;23.342;2023-02-10T04:17:07;76854.13;;;-148.52;66.37
3254;BME280;1639;42.804;23.342;2023-02-10T04:19:32;76870.66;;;-148.52;65.83
3254;BME280;1639;42.804;23.342;2023-02-10T04:21:58;76858.25;;;-148.52;66.47
3254;BME280;1639;42.804;23.342;2023-02-10T04:24:23;76852.03;;;-148.52;65.66
3254;BME280;1639;42.804;23.342;2023-02-10T04:26:48;76854.13;;;-148.52;65.59
3254;BME280;1639;42.804;23.342;2023-02-10T04:29:14;76854.13;;;-148.52;65.54
3254;BME280;1639;42.804;23.342;2023-02-10T04:31:39;76852.03;;;-148.52;65.73
3254;BME280;1639;42.804;23.342;2023-02-10T04:34:05;76868.59;;;-148.52;65.08
3254;BME280;1639;42.804;23.342;2023-02-10T04:36:30;76870.66;;;-148.52;65.02
3254;BME280;1639;42.804;23.342;2023-02-10T04:38:56;76866.53;;;-148.52;65.08
3254;BME280;1639;42.804;23.342;2023-02-10T04:41:21;76849.97;;;-148.52;65.25
3254;BME280;1639;42.804;23.342;2023-02-10T04:43:47;76841.69;;;-148.52;64.82
3254;BME280;1639;42.804;23.342;2023-02-10T04:46:13;76849.97;;;-148.52;64.62
3254;BME280;1639;42.804;23.342;2023-02-10T04:48:38;76845.84;;;-148.52;64.37
3254;BME280;1639;42.804;23.342;2023-02-10T04:51:11;76845.84;;;-148.52;64.39
3254;BME280;1639;42.804;23.342;2023-02-10T04:53:38;76845.84;;;-148.52;64.10
3254;BME280;1639;42.804;23.342;2023-02-10T04:56:05;76845.84;;;-148.52;63.74
3254;BME280;1639;42.804;23.342;2023-02-10T04:58:31;76858.25;;;-148.52;64.07
3254;BME280;1639;42.804;23.342;2023-02-10T05:00:56;76858.25;;;-148.52;63.89
3254;BME280;1639;42.804;23.342;2023-02-10T05:03:23;76866.53;;;-148.52;63.58
3254;BME280;1639;42.804;23.342;2023-02-10T05:05:48;76870.66;;;-148.52;63.56
3254;BME280;1639;42.804;23.342;2023-02-10T05:08:14;76891.38;;;-148.52;64.04
3254;BME280;1639;42.804;23.342;2023-02-10T05:10:39;76895.50;;;-148.52;63.62
3254;BME280;1639;42.804;23.342;2023-02-10T05:13:05;76932.78;;;-148.52;64.41
3254;BME280;1639;42.804;23.342;2023-02-10T05:15:30;76953.47;;;-148.52;65.13
3254;BME280;1639;42.804;23.342;2023-02-10T05:17:56;76963.84;;;-148.52;65.75
3254;BME280;1639;42.804;23.342;2023-02-10T05:20:21;76994.88;;;-148.52;66.81
3254;BME280;1639;42.804;23.342;2023-02-10T05:22:47;77011.44;;;-148.52;66.90
3254;BME280;1639;42.804;23.342;2023-02-10T05:25:12;77007.31;;;-148.52;67.46
3254;BME280;1639;42.804;23.342;2023-02-10T05:27:38;76996.97;;;-148.52;67.40
3254;BME280;1639;42.804;23.342;2023-02-10T05:30:05;76999.03;;;-148.52;67.62
3254;BME280;1639;42.804;23.342;2023-02-10T05:32:32;76994.88;;;-148.52;67.51
3254;BME280;1639;42.804;23.342;2023-02-10T05:34:57;76986.59;;;-148.52;67.55
3254;BME280;1639;42.804;23.342;2023-02-10T05:37:23;76999.03;;;-148.52;67.40
3254;BME280;1639;42.804;23.342;2023-02-10T05:39:48;76994.88;;;-148.52;67.52
3254;BME280;1639;42.804;23.342;2023-02-10T05:42:13;76999.03;;;-148.52;67.71
3254;BME280;1639;42.804;23.342;2023-02-10T05:44:39;77001.09;;;-148.52;68.07
3254;BME280;1639;42.804;23.342;2023-02-10T05:47:04;76992.81;;;-148.52;68.38
3254;BME280;1639;42.804;23.342;2023-02-10T05:49:30;76982.47;;;-148.52;68.36
3254;BME280;1639;42.804;23.342;2023-02-10T05:51:55;76972.13;;;-148.52;67.93
3254;BME280;1639;42.804;23.342;2023-02-10T05:54:20;76957.63;;;-148.52;67.42
3254;BME280;1639;42.804;23.342;2023-02-10T05:56:46;76939.00;;;-148.52;66.69
3254;BME280;1639;42.804;23.342;2023-02-10T05:59:12;76926.56;;;-148.52;66.02
3254;BME280;1639;42.804;23.342;2023-02-10T06:01:40;76928.63;;;-148.52;64.97
3254;BME280;1639;42.804;23.342;2023-02-10T06:04:06;76941.06;;;-148.52;64.74
3254;BME280;1639;42.804;23.342;2023-02-10T06:06:31;76953.47;;;-148.52;64.76
3254;BME280;1639;42.804;23.342;2023-02-10T06:08:56;76955.56;;;-148.52;65.33
3254;BME280;1639;42.804;23.342;2023-02-10T06:11:22;76970.03;;;-148.52;65.61
3254;BME280;1639;42.804;23.342;2023-02-10T06:13:47;76961.75;;;-148.52;65.56
3254;BME280;1639;42.804;23.342;2023-02-10T06:16:12;76967.97;;;-148.52;65.79
3254;BME280;1639;42.804;23.342;2023-02-10T06:18:38;76953.47;;;-148.52;65.25
3254;BME280;1639;42.804;23.342;2023-02-10T06:21:03;76953.47;;;-148.52;65.10
3254;BME280;1639;42.804;23.342;2023-02-10T06:23:29;76928.63;;;-148.52;65.29
3254;BME280;1639;42.804;23.342;2023-02-10T06:25:54;76905.88;;;-148.52;64.93
3254;BME280;1639;42.804;23.342;2023-02-10T06:28:24;76895.50;;;-148.52;64.42
3254;BME280;1639;42.804;23.342;2023-02-10T06:30:50;76866.53;;;-148.52;64.08
3254;BME280;1639;42.804;23.342;2023-02-10T06:33:16;76841.69;;;-148.52;63.09
3254;BME280;1639;42.804;23.342;2023-02-10T06:35:42;76814.78;;;-148.52;62.33
3254;BME280;1639;42.804;23.342;2023-02-10T06:38:07;76794.06;;;-148.52;62.89
3254;BME280;1639;42.804;23.342;2023-02-10T06:40:33;76758.88;;;-148.52;61.75
3254;BME280;1639;42.804;23.342;2023-02-10T06:42:58;76779.59;;;-148.52;61.29
3254;BME280;1639;42.804;23.342;2023-02-10T06:45:26;76792.00;;;-148.52;61.10
3254;BME280;1639;42.804;23.342;2023-02-10T06:47:52;76798.22;;;-148.52;60.64
3254;BME280;1639;42.804;23.342;2023-02-10T06:50:17;76808.56;;;-148.52;60.87
3254;BME280;1639;42.804;23.342;2023-02-10T06:52:43;76816.84;;;-148.52;60.99
3254;BME280;1639;42.804;23.342;2023-02-10T06:55:09;76806.50;;;-148.52;60.72
3254;BME280;1639;42.804;23.342;2023-02-10T06:57:35;76785.78;;;-148.52;60.85
3254;BME280;1639;42.804;23.342;2023-02-10T07:00:06;76783.72;;;-148.52;60.00
3254;BME280;1639;42.804;23.342;2023-02-10T07:02:33;76754.75;;;-148.52;59.88
3254;BME280;1639;42.804;23.342;2023-02-10T07:04:58;76725.75;;;-148.52;59.84
3254;BME280;1639;42.804;23.342;2023-02-10T07:07:23;76709.19;;;-148.52;59.42
3254;BME280;1639;42.804;23.342;2023-02-10T07:09:49;76678.16;;;-148.52;58.52
3254;BME280;1639;42.804;23.342;2023-02-10T07:12:18;76642.97;;;-148.52;58.57
3254;BME280;1639;42.804;23.342;2023-02-10T07:14:44;76628.47;;;-148.52;57.38
3254;BME280;1639;42.804;23.342;2023-02-10T07:17:09;76599.47;;;-148.52;57.24
3254;BME280;1639;42.804;23.342;2023-02-10T07:19:35;76603.63;;;-148.52;57.52
3254;BME280;1639;42.804;23.342;2023-02-10T07:22:00;76556.00;;;-148.52;57.57
3254;BME280;1639;42.804;23.342;2023-02-10T07:24:30;76516.69;;;-148.52;56.05
3254;BME280;1639;42.804;23.342;2023-02-10T07:26:55;76518.75;;;-148.52;55.55
3254;BME280;1639;42.804;23.342;2023-02-10T07:29:21;76491.84;;;-148.52;55.23
3254;BME280;1639;42.804;23.342;2023-02-10T07:31:46;76491.84;;;-148.52;55.72
3254;BME280;1639;42.804;23.342;2023-02-10T07:34:11;76460.78;;;-148.52;54.91
3254;BME280;1639;42.804;23.342;2023-02-10T07:36:37;76427.66;;;-148.52;54.38
3254;BME280;1639;42.804;23.342;2023-02-10T07:39:02;76413.19;;;-148.52;54.02
3254;BME280;1639;42.804;23.342;2023-02-10T07:41:28;76394.56;;;-148.52;54.30
3254;BME280;1639;42.804;23.342;2023-02-10T07:43:53;76369.72;;;-148.52;54.37
3254;BME280;1639;42.804;23.342;2023-02-10T07:46:19;76332.44;;;-148.52;54.01
3254;BME280;1639;42.804;23.342;2023-02-10T07:48:44;76282.78;;;-148.52;52.72
3254;BME280;1639;42.804;23.342;2023-02-10T07:51:09;76282.78;;;-148.52;52.68
3254;BME280;1639;42.804;23.342;2023-02-10T07:53:35;76222.75;;;-148.52;51.85
3254;BME280;1639;42.804;23.342;2023-02-10T07:56:02;76150.31;;;-148.52;50.67
3254;BME280;1639;42.804;23.342;2023-02-10T07:58:28;76104.75;;;-148.52;50.22
3254;BME280;1639;42.804;23.342;2023-02-10T08:00:55;76050.94;;;-148.52;49.72
3254;BME280;1639;42.804;23.342;2023-02-10T08:03:20;75997.13;;;-148.52;48.52
3254;BME280;1639;42.804;23.342;2023-02-10T08:05:46;75968.16;;;-148.52;47.34
3254;BME280;1639;42.804;23.342;2023-02-10T08:08:14;75930.91;;;-148.52;47.80
3254;BME280;1639;42.804;23.342;2023-02-10T08:10:40;75893.66;;;-148.52;46.20
3254;BME280;1639;42.804;23.342;2023-02-10T08:13:06;75862.59;;;-148.52;45.62
3254;BME280;1639;42.804;23.342;2023-02-10T08:15:32;75868.81;;;-148.52;44.89
3254;BME280;1639;42.804;23.342;2023-02-10T08:17:58;75796.38;;;-148.52;45.07
3254;BME280;1639;42.804;23.342;2023-02-10T08:20:25;75804.66;;;-148.52;44.13
3254;BME280;1639;42.804;23.342;2023-02-10T08:22:54;75833.63;;;-148.52;44.37
3254;BME280;1639;42.804;23.342;2023-02-10T08:25:20;75817.06;;;-148.52;44.87
3254;BME280;1639;42.804;23.342;2023-02-10T08:27:45;75796.38;;;-148.52;44.40
3254;BME280;1639;42.804;23.342;2023-02-10T08:30:11;75773.59;;;-148.52;43.47
3254;BME280;1639;42.804;23.342;2023-02-10T08:32:37;75736.34;;;-148.52;43.61
3254;BME280;1639;42.804;23.342;2023-02-10T08:35:02;75769.47;;;-148.52;43.40
3254;BME280;1639;42.804;23.342;2023-02-10T08:37:28;75767.41;;;-148.52;43.78
3254;BME280;1639;42.804;23.342;2023-02-10T08:39:54;75736.34;;;-148.52;43.00
3254;BME280;1639;42.804;23.342;2023-02-10T08:42:19;75794.31;;;-148.52;43.15
3254;BME280;1639;42.804;23.342;2023-02-10T08:44:44;75852.25;;;-148.52;44.60
3254;BME280;1639;42.804;23.342;2023-02-10T08:47:10;75893.66;;;-148.52;45.71
3254;BME280;1639;42.804;23.342;2023-02-10T08:49:38;75870.88;;;-148.52;45.38
3254;BME280;1639;42.804;23.342;2023-02-10T08:52:04;75815.00;;;-148.52;45.48
3254;BME280;1639;42.804;23.342;2023-02-10T08:54:30;75835.69;;;-148.52;45.85
3254;BME280;1639;42.804;23.342;2023-02-10T08:56:55;75854.31;;;-148.52;46.44
3254;BME280;1639;42.804;23.342;2023-02-10T08:59:20;75852.25;;;-148.52;46.07
3254;BME280;1639;42.804;23.342;2023-02-10T09:01:46;75827.41;;;-148.52;46.32
3254;BME280;1639;42.804;23.342;2023-02-10T09:04:11;75806.72;;;-148.52;46.06
3254;BME280;1639;42.804;23.342;2023-02-10T09:06:39;75802.59;;;-148.52;46.10
3254;BME280;1639;42.804;23.342;2023-02-10T09:09:08;75765.34;;;-148.52;45.34
3254;BME280;1639;42.804;23.342;2023-02-10T09:11:34;75885.38;;;-148.52;46.27
3254;BME280;1639;42.804;23.342;2023-02-10T09:13:59;75825.34;;;-148.52;45.91
3254;BME280;1639;42.804;23.342;2023-02-10T09:16:25;75790.16;;;-148.52;46.23
3254;BME280;1639;42.804;23.342;2023-02-10T09:18:50;75792.22;;;-148.52;45.52
3254;BME280;1639;42.804;23.342;2023-02-10T09:21:16;75812.94;;;-148.52;45.96
3254;BME280;1639;42.804;23.342;2023-02-10T09:23:42;75910.22;;;-148.52;46.14
3254;BME280;1639;42.804;23.342;2023-02-10T09:26:08;75825.34;;;-148.52;45.34
3254;BME280;1639;42.804;23.342;2023-02-10T09:28:33;75786.03;;;-148.52;44.38
3254;BME280;1639;42.804;23.342;2023-02-10T09:30:59;75786.03;;;-148.52;44.42
3254;BME280;1639;42.804;23.342;2023-02-10T09:33:25;75798.44;;;-148.52;44.61
3254;BME280;1639;42.804;23.342;2023-02-10T09:35:50;75858.47;;;-148.52;44.53
3254;BME280;1639;42.804;23.342;2023-02-10T09:38:15;75843.97;;;-148.52;45.45
3254;BME280;1639;42.804;23.342;2023-02-10T09:41:00;75839.84;;;-148.52;45.76
3254;BME280;1639;42.804;23.342;2023-02-10T09:51:47;75806.72;;;-148.52;45.51
3254;BME280;1639;42.804;23.342;2023-02-10T09:54:17;75806.72;;;-148.52;45.69
3254;BME280;1639;42.804;23.342;2023-02-10T09:56:44;75790.16;;;-148.52;45.38
3254;BME280;1639;42.804;23.342;2023-02-10T09:59:15;75769.47;;;-148.52;45.17
3254;BME280;1639;42.804;23.342;2023-02-10T10:01:57;75781.88;;;-148.52;44.08
3254;BME280;1639;42.804;23.342;2023-02-10T10:04:26;75777.75;;;-148.52;44.42
3254;BME280;1639;42.804;23.342;2023-02-10T10:06:56;75732.22;;;-148.52;44.57
3254;BME280;1639;42.804;23.342;2023-02-10T10:09:37;75728.06;;;-148.52;44.42
3254;BME280;1639;42.804;23.342;2023-02-10T10:12:09;75732.22;;;-148.52;45.33
3254;BME280;1639;42.804;23.342;2023-02-10T10:14:38;75736.34;;;-148.52;44.57
3254;BME280;1639;42.804;23.342;2023-02-10T10:26:06;75690.81;;;-148.52;45.28
3254;BME280;1639;42.804;23.342;2023-02-10T10:31:33;75645.28;;;-148.52;44.18
3254;BME280;1639;42.804;23.342;2023-02-10T10:34:08;75622.53;;;-148.52;43.74
3254;BME280;1639;42.804;23.342;2023-02-10T10:36:47;75608.03;;;-148.52;44.26
3254;BME280;1639;42.804;23.342;2023-02-10T10:39:33;75583.22;;;-148.52;43.52
3254;BME280;1639;42.804;23.342;2023-02-10T10:44:43;75610.09;;;-148.52;43.19
3254;BME280;1639;42.804;23.342;2023-02-10T10:47:15;75577.00;;;-148.52;43.20
3254;BME280;1639;42.804;23.342;2023-02-10T10:49:42;75564.56;;;-148.52;42.58
3254;BME280;1639;42.804;23.342;2023-02-10T10:52:27;75562.50;;;-148.52;43.02
3254;BME280;1639;42.804;23.342;2023-02-10T10:54:53;75591.47;;;-148.52;43.77
3254;BME280;1639;42.804;23.342;2023-02-10T10:57:18;75574.94;;;-148.52;43.24
3254;BME280;1639;42.804;23.342;2023-02-10T10:59:54;75601.84;;;-148.52;43.40
3254;BME280;1639;42.804;23.342;2023-02-10T11:02:21;75599.75;;;-148.52;42.85
3254;BME280;1639;42.804;23.342;2023-02-10T11:05:03;75568.72;;;-148.52;43.31
3254;BME280;1639;42.804;23.342;2023-02-10T11:07:32;75531.47;;;-148.52;42.50
3254;BME280;1639;42.804;23.342;2023-02-10T11:09:58;75519.06;;;-148.52;41.76
3254;BME280;1639;42.804;23.342;2023-02-10T11:12:27;75529.41;;;-148.52;41.26
3254;BME280;1639;42.804;23.342;2023-02-10T11:14:53;75512.84;;;-148.52;41.03
3254;BME280;1639;42.804;23.342;2023-02-10T11:17:40;75537.69;;;-148.52;41.39
3254;BME280;1639;42.804;23.342;2023-02-10T11:20:22;75525.25;;;-148.52;41.80
3254;BME280;1639;42.804;23.342;2023-02-10T11:23:01;75529.41;;;-148.52;40.93
3254;BME280;1639;42.804;23.342;2023-02-10T11:25:28;75537.69;;;-148.52;41.91
3254;BME280;1639;42.804;23.342;2023-02-10T11:27:55;75525.25;;;-148.52;41.91
3254;BME280;1639;42.804;23.342;2023-02-10T11:30:31;75570.78;;;-148.52;42.18
3254;BME280;1639;42.804;23.342;2023-02-10T11:32:58;75577.00;;;-148.52;42.74
3254;BME280;1639;42.804;23.342;2023-02-10T11:35:25;75601.84;;;-148.52;43.20
3254;BME280;1639;42.804;23.342;2023-02-10T11:37:53;75550.09;;;-148.52;42.90
3254;BME280;1639;42.804;23.342;2023-02-10T11:40:30;75529.41;;;-148.52;43.08
3254;BME280;1639;42.804;23.342;2023-02-10T11:42:58;75494.22;;;-148.52;41.98
3254;BME280;1639;42.804;23.342;2023-02-10T11:45:27;75510.78;;;-148.52;41.87
3254;BME280;1639;42.804;23.342;2023-02-10T11:48:14;75485.94;;;-148.52;42.42
3254;BME280;1639;42.804;23.342;2023-02-10T11:50:41;75492.16;;;-148.52;41.97
3254;BME280;1639;42.804;23.342;2023-02-10T11:53:20;75473.53;;;-148.52;42.15
3254;BME280;1639;42.804;23.342;2023-02-10T11:56:01;75444.53;;;-148.52;44.23
3254;BME280;1639;42.804;23.342;2023-02-10T11:58:45;75413.50;;;-148.52;41.74
3254;BME280;1639;42.804;23.342;2023-02-10T12:07:19;75403.16;;;-148.52;40.09
3254;BME280;1639;42.804;23.342;2023-02-10T12:20:38;75359.69;;;-148.52;39.44
3254;BME280;1639;42.804;23.342;2023-02-10T12:23:50;75355.56;;;-148.52;39.41
3254;BME280;1639;42.804;23.342;2023-02-10T12:26:53;75367.97;;;-148.52;38.93
3254;BME280;1639;42.804;23.342;2023-02-10T12:32:30;75363.84;;;-148.52;39.60
3254;BME280;1639;42.804;23.342;2023-02-10T12:35:15;75351.41;;;-148.52;39.25
3254;BME280;1639;42.804;23.342;2023-02-10T12:53:41;75314.16;;;-148.52;38.63
3254;BME280;1639;42.804;23.342;2023-02-10T12:58:45;75297.63;;;-148.52;38.45
3254;BME280;1639;42.804;23.342;2023-02-10T13:01:34;75289.34;;;-148.52;38.81
3254;BME280;1639;42.804;23.342;2023-02-10T13:04:06;75283.13;;;-148.52;38.91
3254;BME280;1639;42.804;23.342;2023-02-10T13:06:41;75283.13;;;-148.52;38.45
3254;BME280;1639;42.804;23.342;2023-02-10T13:09:28;75276.91;;;-148.52;38.83
3254;BME280;1639;42.804;23.342;2023-02-10T13:14:35;75270.72;;;-148.52;37.93
3254;BME280;1639;42.804;23.342;2023-02-10T13:17:04;75268.66;;;-148.52;37.86
3254;BME280;1639;42.804;23.342;2023-02-10T13:19:55;75260.38;;;-148.52;37.98
3254;BME280;1639;42.804;23.342;2023-02-10T13:25:06;75256.22;;;-148.52;37.31
3254;BME280;1639;42.804;23.342;2023-02-10T13:28:10;75237.59;;;-148.52;37.18
3254;BME280;1639;42.804;23.342;2023-02-10T13:35:42;75237.59;;;-148.52;36.84
3254;BME280;1639;42.804;23.342;2023-02-10T13:38:13;75235.53;;;-148.52;37.02
3254;BME280;1639;42.804;23.342;2023-02-10T13:40:51;75235.53;;;-148.52;36.93
3254;BME280;1639;42.804;23.342;2023-02-10T13:45:51;75198.28;;;-148.52;36.21
3254;BME280;1639;42.804;23.342;2023-02-10T13:48:22;75194.16;;;-148.52;35.25
3254;BME280;1639;42.804;23.342;2023-02-10T13:50:56;75187.94;;;-148.52;35.28
3254;BME280;1639;42.804;23.342;2023-02-10T14:01:47;75202.44;;;-148.52;35.00
3254;BME280;1639;42.804;23.342;2023-02-10T14:06:45;75223.13;;;-148.52;34.67
3254;BME280;1639;42.804;23.342;2023-02-10T14:12:00;75237.59;;;-148.52;34.94
3254;BME280;1639;42.804;23.342;2023-02-10T14:14:30;75235.53;;;-148.52;35.83
3254;BME280;1639;42.804;23.342;2023-02-10T14:19:42;75223.13;;;-148.52;35.54
3254;BME280;1639;42.804;23.342;2023-02-10T14:22:26;75208.63;;;-148.52;36.39
3254;BME280;1639;42.804;23.342;2023-02-10T14:24:54;75210.69;;;-148.52;36.11
3254;BME280;1639;42.804;23.342;2023-02-10T14:27:24;75214.84;;;-148.52;36.41
3254;BME280;1639;42.804;23.342;2023-02-10T14:29:56;75208.63;;;-148.52;36.34
3254;BME280;1639;42.804;23.342;2023-02-10T14:32:25;75204.50;;;-148.52;35.91
3254;BME280;1639;42.804;23.342;2023-02-10T14:34:59;75202.44;;;-148.52;35.54
3254;BME280;1639;42.804;23.342;2023-02-10T14:37:25;75204.50;;;-148.52;35.19
3254;BME280;1639;42.804;23.342;2023-02-10T14:42:16;75206.56;;;-148.52;35.40
3254;BME280;1639;42.804;23.342;2023-02-10T14:44:44;75190.00;;;-148.52;34.95
3254;BME280;1639;42.804;23.342;2023-02-10T14:47:20;75202.44;;;-148.52;35.43
3254;BME280;1639;42.804;23.342;2023-02-10T14:49:52;75202.44;;;-148.52;36.01
3254;BME280;1639;42.804;23.342;2023-02-10T14:52:33;75208.63;;;-148.52;36.04
3254;BME280;1639;42.804;23.342;2023-02-10T14:54:59;75212.78;;;-148.52;35.98
3254;BME280;1639;42.804;23.342;2023-02-10T14:57:27;75208.63;;;-148.52;35.83
3254;BME280;1639;42.804;23.342;2023-02-10T14:59:54;75218.97;;;-148.52;36.18